Time;durP1;ratioP1;P1;durP2;ratioP2;P2;SDS_P1;SDS_P2;PMS_P1;PMS_P2;Temp;Humidity;BMP_temperature;BMP_pressure;BME280_temperature;BME280_humidity;BME280_pressure;Samples;Min_cycle;Max_cycle;Signal;HPM_P1;HPM_P2
2022/12/13 00:01:49;;;;;;;0.90;0.90;;;;;;;-0.20;100.00;98173.50;4935817;29;20095;-84
2022/12/13 00:04:19;;;;;;;0.85;0.85;;;;;;;-0.16;100.00;98189.81;4933535;29;20056;-83
2022/12/13 00:06:46;;;;;;;0.85;0.85;;;;;;;-0.16;100.00;98182.69;4935052;29;20054;-83
2022/12/13 00:09:17;;;;;;;0.90;0.90;;;;;;;-0.15;100.00;98192.28;4917855;29;20079;-84
2022/12/13 00:11:45;;;;;;;0.80;0.80;;;;;;;-0.16;100.00;98190.63;4934837;29;20142;-85
2022/12/13 00:14:15;;;;;;;0.90;0.90;;;;;;;-0.17;100.00;98173.09;4934558;29;20095;-83
2022/12/13 00:16:46;;;;;;;1.00;1.00;;;;;;;-0.16;100.00;98193.28;4935180;29;20094;-84
2022/12/13 00:19:14;;;;;;;0.90;0.90;;;;;;;-0.17;100.00;98183.72;4917827;29;20557;-83
2022/12/13 00:21:41;;;;;;;0.82;0.82;;;;;;;-0.20;100.00;98199.16;4934854;29;20056;-84
2022/12/13 00:24:08;;;;;;;0.98;0.98;;;;;;;-0.26;100.00;98190.16;4934389;29;20090;-84
2022/12/13 00:26:37;;;;;;;0.80;0.80;;;;;;;-0.25;100.00;98191.81;4935423;29;20052;-84
2022/12/13 00:29:05;;;;;;;0.90;0.90;;;;;;;-0.24;100.00;98174.88;4935067;29;20055;-84
2022/12/13 00:31:33;;;;;;;0.80;0.80;;;;;;;-0.24;100.00;98188.97;4934979;29;20084;-84
2022/12/13 00:34:20;;;;;;;0.90;0.90;;;;;;;-0.25;100.00;98178.56;4920269;29;20044;-84
2022/12/13 00:36:47;;;;;;;0.90;0.90;;;;;;;-0.23;100.00;98187.13;4934444;29;20079;-83
2022/12/13 00:39:15;;;;;;;0.90;0.90;;;;;;;-0.24;100.00;98169.59;4934202;29;20389;-83
2022/12/13 00:41:43;;;;;;;0.90;0.90;;;;;;;-0.24;100.00;98172.25;4934557;29;20154;-83
2022/12/13 00:44:11;;;;;;;0.90;0.90;;;;;;;-0.23;100.00;98166.75;4934124;29;20094;-84
2022/12/13 00:46:41;;;;;;;0.90;0.90;;;;;;;-0.21;100.00;98187.75;4929168;29;20138;-84
2022/12/13 00:49:09;;;;;;;0.80;0.80;;;;;;;-0.20;100.00;98173.50;4934183;29;20055;-84
2022/12/13 00:51:36;;;;;;;1.00;1.00;;;;;;;-0.19;100.00;98169.81;4934116;29;20059;-83
2022/12/13 00:54:04;;;;;;;0.77;0.77;;;;;;;-0.18;100.00;98179.41;4932826;29;20044;-83
2022/12/13 00:56:32;;;;;;;1.00;1.00;;;;;;;-0.18;100.00;98197.97;4934075;29;20115;-84
2022/12/13 00:58:59;;;;;;;0.75;0.75;;;;;;;-0.23;100.00;98173.88;4934102;29;20058;-84
2022/12/13 01:01:29;;;;;;;0.80;0.80;;;;;;;-0.20;100.00;98170.00;4934582;29;20055;-84
2022/12/13 01:03:59;;;;;;;0.80;0.80;;;;;;;-0.21;100.00;98174.50;4937954;29;20044;-84
2022/12/13 01:06:37;;;;;;;0.90;0.90;;;;;;;-0.17;100.00;98165.13;4948412;29;20058;-84
2022/12/13 01:09:09;;;;;;;0.80;0.80;;;;;;;-0.16;100.00;98169.41;4941223;29;20075;-84
2022/12/13 01:11:36;;;;;;;0.90;0.90;;;;;;;-0.15;100.00;98184.34;4933989;29;20146;-84
2022/12/13 01:14:03;;;;;;;0.90;0.90;;;;;;;-0.17;100.00;98173.09;4932471;29;20043;-85
2022/12/13 01:16:31;;;;;;;0.82;0.82;;;;;;;-0.20;100.00;98167.34;4916815;29;20051;-82
2022/12/13 01:18:58;;;;;;;0.90;0.90;;;;;;;-0.15;100.00;98171.06;4900959;29;20142;-83
2022/12/13 01:21:25;;;;;;;0.90;0.90;;;;;;;-0.09;100.00;98177.41;4933805;29;20086;-83
2022/12/13 01:23:52;;;;;;;0.88;0.88;;;;;;;-0.10;100.00;98173.13;4933461;29;20574;-81
2022/12/13 01:26:20;;;;;;;0.80;0.80;;;;;;;-0.08;100.00;98163.94;4932252;29;20422;-82
2022/12/13 01:28:50;;;;;;;0.80;0.80;;;;;;;-0.07;100.00;98172.75;4933746;29;20062;-86
2022/12/13 01:31:19;;;;;;;0.88;0.88;;;;;;;-0.09;100.00;98169.47;4932278;29;20058;-84
2022/12/13 01:33:47;;;;;;;0.88;0.88;;;;;;;-0.15;100.00;98155.16;4932330;29;20511;-83
2022/12/13 01:36:17;;;;;;;0.85;0.85;;;;;;;-0.11;100.00;98171.50;4933715;29;20052;-83
2022/12/13 01:38:49;;;;;;;0.90;0.90;;;;;;;-0.14;100.00;98170.03;4924109;29;20047;-85
2022/12/13 01:41:19;;;;;;;0.90;0.90;;;;;;;-0.11;100.00;98174.94;4935023;29;20083;-83
2022/12/13 01:43:56;;;;;;;0.90;0.90;;;;;;;-0.08;100.00;98174.56;4914273;29;20110;-84
2022/12/13 01:46:23;;;;;;;0.90;0.90;;;;;;;-0.05;100.00;98176.00;4899021;29;20090;-84
2022/12/13 01:49:13;;;;;;;0.90;0.90;;;;;;;-0.06;100.00;98174.38;4929799;29;20048;-83
2022/12/13 01:51:50;;;;;;;0.90;0.90;;;;;;;-0.06;100.00;98183.13;4931417;29;20051;-84
2022/12/13 01:54:21;;;;;;;0.80;0.80;;;;;;;-0.06;100.00;98185.78;4930773;29;20051;-83
2022/12/13 01:56:52;;;;;;;0.90;0.90;;;;;;;-0.04;100.00;98178.47;4933018;29;20066;-82
2022/12/13 01:59:27;;;;;;;0.90;0.90;;;;;;;-0.04;100.00;98172.34;4930079;29;20056;-83
2022/12/13 02:01:54;;;;;;;0.90;0.90;;;;;;;0.02;100.00;98182.16;4900220;29;20482;-84
2022/12/13 02:04:41;;;;;;;0.80;0.80;;;;;;;0.04;100.00;98174.81;4901038;29;20550;-81
2022/12/13 02:07:14;;;;;;;0.80;0.80;;;;;;;0.07;100.00;98174.41;4914016;29;20055;-83
2022/12/13 02:09:51;;;;;;;0.90;0.90;;;;;;;0.02;100.00;98168.88;4915591;29;20055;-83
2022/12/13 02:12:26;;;;;;;0.90;0.90;;;;;;;0.06;100.00;98182.59;4909587;29;20056;-82
2022/12/13 02:15:06;;;;;;;0.90;0.90;;;;;;;0.02;100.00;98173.38;4921947;29;20127;-84
2022/12/13 02:18:12;;;;;;;0.90;0.90;;;;;;;0.05;100.00;98176.47;4913272;29;20107;-83
2022/12/13 02:20:48;;;;;;;0.90;0.90;;;;;;;0.04;100.00;98180.13;4916261;29;20048;-86
2022/12/13 02:23:49;;;;;;;0.90;0.90;;;;;;;0.05;100.00;98187.09;4901771;29;20071;-83
2022/12/13 02:26:53;;;;;;;0.80;0.80;;;;;;;0.04;100.00;98184.63;4823076;29;20094;-83
2022/12/13 02:29:41;;;;;;;0.90;0.90;;;;;;;0.06;100.00;98179.94;4855273;29;20607;-83
2022/12/13 02:32:14;;;;;;;0.82;0.82;;;;;;;0.08;100.00;98188.53;4855223;29;20445;-83
2022/12/13 02:34:54;;;;;;;0.85;0.85;;;;;;;0.03;100.00;98170.53;4855406;29;20062;-83
2022/12/13 02:37:59;;;;;;;0.90;0.90;;;;;;;0.03;100.00;98180.34;4855246;29;20065;-84
2022/12/13 02:40:31;;;;;;;0.85;0.85;;;;;;;0.02;100.00;98178.69;4855394;29;20154;-83
2022/12/13 02:43:19;;;;;;;0.90;0.90;;;;;;;0.01;100.00;98185.84;4840122;29;20153;-84
2022/12/13 02:45:57;;;;;;;0.90;0.90;;;;;;;-0.03;100.00;98182.75;4824981;29;20684;-83
2022/12/13 02:48:27;;;;;;;0.80;0.80;;;;;;;0.02;100.00;98186.66;4855446;29;20527;-84
2022/12/13 02:50:57;;;;;;;0.90;0.90;;;;;;;0.05;100.00;98183.59;4855633;29;20148;-84
2022/12/13 02:53:25;;;;;;;0.95;0.95;;;;;;;0.04;100.00;98187.28;4855203;29;20053;-82
2022/12/13 02:55:52;;;;;;;1.00;1.00;;;;;;;0.05;100.00;98183.59;4855321;29;20081;-86
2022/12/13 02:58:22;;;;;;;0.90;0.90;;;;;;;0.05;100.00;98191.56;4855709;29;20201;-85
2022/12/13 03:01:17;;;;;;;0.90;0.90;;;;;;;0.03;100.00;98185.66;4855583;29;20061;-84
2022/12/13 03:04:07;;;;;;;1.00;1.00;;;;;;;0.06;100.00;98196.69;4899978;29;20064;-82
2022/12/13 03:06:49;;;;;;;0.90;0.90;;;;;;;0.02;100.00;98194.59;4928964;29;20067;-82
2022/12/13 03:09:38;;;;;;;0.90;0.90;;;;;;;-0.05;100.00;98176.84;4931959;29;20070;-84
2022/12/13 03:15:00;;;;;;;1.00;1.00;;;;;;;0.03;100.00;98190.97;4916976;29;20120;-84
2022/12/13 03:17:55;;;;;;;0.90;0.90;;;;;;;-0.03;100.00;98196.00;4916614;29;20082;-84
2022/12/13 03:20:25;;;;;;;0.90;0.90;;;;;;;-0.04;100.00;98205.00;4899471;29;20170;-83
2022/12/13 03:22:53;;;;;;;0.90;0.90;;;;;;;-0.09;100.00;98190.69;4899608;29;20122;-83
2022/12/13 03:25:22;;;;;;;0.90;0.90;;;;;;;-0.06;100.00;98180.47;4883902;29;20143;-83
2022/12/13 03:28:00;;;;;;;0.80;0.80;;;;;;;-0.05;100.00;98186.59;4901235;29;20076;-84
2022/12/13 03:30:30;;;;;;;0.90;0.90;;;;;;;-0.08;100.00;98185.16;4900182;29;20822;-84
2022/12/13 03:32:57;;;;;;;0.80;0.80;;;;;;;-0.11;100.00;98190.88;4916931;29;20603;-85
2022/12/13 03:35:24;;;;;;;0.90;0.90;;;;;;;-0.13;100.00;98194.72;4900346;29;20411;-84
2022/12/13 03:38:01;;;;;;;0.90;0.90;;;;;;;-0.08;100.00;98201.06;4885127;29;20067;-85
2022/12/13 03:40:29;;;;;;;0.90;0.90;;;;;;;-0.08;100.00;98200.25;4909221;29;20371;-82
2022/12/13 03:42:56;;;;;;;0.80;0.80;;;;;;;-0.11;100.00;98198.81;4918736;29;20048;-83
2022/12/13 03:45:23;;;;;;;0.80;0.80;;;;;;;-0.12;100.00;98193.72;4935606;29;20082;-87
2022/12/13 03:47:53;;;;;;;0.80;0.80;;;;;;;-0.21;100.00;98171.84;4918287;29;20043;-84
2022/12/13 03:50:21;;;;;;;0.90;0.90;;;;;;;-0.13;100.00;98187.59;4935030;29;20091;-81
2022/12/13 03:52:59;;;;;;;0.90;0.90;;;;;;;-0.18;100.00;98183.88;4934967;29;20058;-82
2022/12/13 03:55:48;;;;;;;0.80;0.80;;;;;;;-0.20;100.00;98181.44;4935302;29;20055;-83
2022/12/13 03:58:15;;;;;;;0.90;0.90;;;;;;;-0.14;100.00;98187.81;4901788;29;20067;-83
2022/12/13 04:00:43;;;;;;;0.90;0.90;;;;;;;-0.14;100.00;98182.50;4934962;29;20050;-83
2022/12/13 04:03:10;;;;;;;0.80;0.80;;;;;;;-0.16;100.00;98190.63;4917816;29;20494;-83
2022/12/13 04:05:37;;;;;;;0.90;0.90;;;;;;;-0.11;100.00;98206.78;4917863;29;20099;-83
2022/12/13 04:08:05;;;;;;;0.90;0.90;;;;;;;-0.16;100.00;98190.63;4917618;29;20054;-84
2022/12/13 04:10:48;;;;;;;0.90;0.90;;;;;;;-0.11;100.00;98196.16;4934971;29;20058;-83
2022/12/13 04:13:34;;;;;;;0.90;0.90;;;;;;;-0.17;100.00;98181.06;4934442;29;20713;-84
2022/12/13 04:16:01;;;;;;;0.80;0.80;;;;;;;-0.10;100.00;98195.19;4918313;29;20048;-84
2022/12/13 04:18:29;;;;;;;0.90;0.90;;;;;;;-0.11;100.00;98190.88;4934416;29;20051;-85
2022/12/13 04:20:56;;;;;;;0.90;0.90;;;;;;;-0.08;100.00;98197.63;4917059;29;20052;-84
2022/12/13 04:23:24;;;;;;;0.80;0.80;;;;;;;-0.09;100.00;98202.09;4934625;29;20399;-85
2022/12/13 04:25:51;;;;;;;0.90;0.90;;;;;;;-0.09;100.00;98196.81;4934485;29;20134;-84
2022/12/13 04:28:18;;;;;;;0.80;0.80;;;;;;;-0.08;100.00;98201.06;4917621;29;20086;-84
2022/12/13 04:30:49;;;;;;;0.85;0.85;;;;;;;-0.08;100.00;98187.81;4917595;29;20079;-84
2022/12/13 04:33:21;;;;;;;0.90;0.90;;;;;;;-0.10;100.00;98202.28;4932961;29;20059;-85
2022/12/13 04:35:50;;;;;;;0.80;0.80;;;;;;;-0.05;100.00;98195.41;4918943;29;20048;-84
2022/12/13 04:38:17;;;;;;;0.90;0.90;;;;;;;-0.05;100.00;98190.09;4935275;29;20048;-84
2022/12/13 04:40:45;;;;;;;0.90;0.90;;;;;;;-0.01;100.00;98190.50;4918500;29;20051;-84
2022/12/13 04:43:11;;;;;;;0.80;0.80;;;;;;;-0.01;100.00;98185.22;4936165;29;20087;-83
2022/12/13 04:45:38;;;;;;;0.90;0.90;;;;;;;0.02;100.00;98191.97;4916822;29;20052;-83
2022/12/13 04:48:06;;;;;;;0.90;0.90;;;;;;;0.06;100.00;98203.81;4916959;29;20055;-84
2022/12/13 04:50:34;;;;;;;1.00;1.00;;;;;;;0.02;100.00;98194.59;4934517;29;20083;-83
2022/12/13 04:53:02;;;;;;;0.80;0.80;;;;;;;-0.01;100.00;98199.28;4921226;29;20594;-84
2022/12/13 04:55:29;;;;;;;0.80;0.80;;;;;;;0.07;100.00;98208.09;4922025;29;20083;-84
2022/12/13 04:57:56;;;;;;;0.82;0.82;;;;;;;0.06;100.00;98203.81;4917732;29;20051;-84
2022/12/13 05:00:23;;;;;;;0.90;0.90;;;;;;;0.07;100.00;98208.09;4917034;29;20058;-84
2022/12/13 05:02:50;;;;;;;0.90;0.90;;;;;;;0.04;100.00;98200.53;4933855;29;20553;-84
2022/12/13 05:05:17;;;;;;;0.88;0.88;;;;;;;0.11;100.00;98212.00;4933818;29;20047;-84
2022/12/13 05:07:45;;;;;;;0.80;0.80;;;;;;;0.15;100.00;98213.25;4916966;29;20043;-84
2022/12/13 05:10:12;;;;;;;0.90;0.90;;;;;;;0.16;100.00;98210.41;4933011;29;20518;-83
2022/12/13 05:13:00;;;;;;;0.80;0.80;;;;;;;0.14;100.00;98208.97;4934699;29;20147;-83
2022/12/13 05:15:28;;;;;;;0.90;0.90;;;;;;;0.09;100.00;98200.78;4933035;29;20044;-84
2022/12/13 05:18:01;;;;;;;0.80;0.80;;;;;;;0.18;100.00;98199.59;4932406;29;20549;-84
2022/12/13 05:20:38;;;;;;;0.90;0.90;;;;;;;0.18;100.00;98212.88;4902470;29;20103;-83
2022/12/13 05:23:05;;;;;;;0.90;0.90;;;;;;;0.24;100.00;98216.56;4916446;29;20487;-83
2022/12/13 05:25:35;;;;;;;0.80;0.80;;;;;;;0.17;100.00;98213.88;4934463;29;20146;-84
2022/12/13 05:28:04;;;;;;;0.90;0.90;;;;;;;0.14;100.00;98211.63;4937761;29;20063;-84
2022/12/13 05:30:52;;;;;;;0.80;0.80;;;;;;;0.12;100.00;98230.38;4937166;29;20051;-84
2022/12/13 05:33:20;;;;;;;0.90;0.90;;;;;;;0.15;100.00;98219.38;4915653;29;20588;-82
2022/12/13 05:35:48;;;;;;;0.80;0.80;;;;;;;0.14;100.00;98223.03;4578588;29;10000233;-83
2022/12/13 05:38:25;;;;;;;0.90;0.90;;;;;;;0.16;100.00;98220.19;4911683;29;20067;-84
2022/12/13 05:40:52;;;;;;;0.90;0.90;;;;;;;0.17;100.00;98222.63;4929887;29;20586;-84
2022/12/13 05:43:19;;;;;;;0.90;0.90;;;;;;;0.18;100.00;98218.19;4929419;29;20052;-83
2022/12/13 05:45:49;;;;;;;0.90;0.90;;;;;;;0.20;100.00;98216.97;4925457;29;20052;-84
2022/12/13 05:48:17;;;;;;;0.77;0.77;;;;;;;0.21;100.00;98221.25;4898589;29;20047;-82
2022/12/13 05:50:51;;;;;;;0.80;0.80;;;;;;;0.17;100.00;98211.22;4930347;29;20052;-83
2022/12/13 05:53:38;;;;;;;0.90;0.90;;;;;;;0.20;100.00;98221.44;4929874;29;20515;-84
2022/12/13 05:56:06;;;;;;;0.85;0.85;;;;;;;0.15;100.00;98222.03;4912893;29;20177;-83
2022/12/13 05:58:35;;;;;;;0.90;0.90;;;;;;;0.22;100.00;98232.66;4918489;29;20056;-83
2022/12/13 06:01:08;;;;;;;0.90;0.90;;;;;;;0.24;100.00;98232.47;4911080;29;20075;-85
2022/12/13 06:03:38;;;;;;;0.68;0.68;;;;;;;0.22;100.00;98228.19;4929453;29;20097;-87
2022/12/13 06:06:07;;;;;;;0.88;0.88;;;;;;;0.28;100.00;98231.91;4913265;29;20056;-85
2022/12/13 06:08:35;;;;;;;0.90;0.90;;;;;;;0.17;100.00;98219.97;4906828;29;20353;-87
2022/12/13 06:11:03;;;;;;;0.90;0.90;;;;;;;0.23;100.00;98215.75;4895233;29;20522;-87
2022/12/13 06:13:43;;;;;;;0.90;0.90;;;;;;;0.26;100.00;98206.56;4897443;29;20159;-87
2022/12/13 06:16:12;;;;;;;0.82;0.82;;;;;;;0.19;100.00;98204.69;4926943;29;20138;-88
2022/12/13 06:18:52;;;;;;;0.80;0.80;;;;;;;0.27;100.00;98226.78;4906547;29;20070;-87
2022/12/13 06:21:33;;;;;;;0.90;0.90;;;;;;;0.27;100.00;98222.28;4929691;29;20048;-84
2022/12/13 06:24:17;;;;;;;0.80;0.80;;;;;;;0.25;100.00;98216.34;4917504;29;20442;-88
2022/12/13 06:26:45;;;;;;;0.98;0.98;;;;;;;0.29;100.00;98230.88;4879237;29;20056;-85
2022/12/13 06:29:20;;;;;;;1.00;1.00;;;;;;;0.28;100.00;98226.59;4910743;29;20063;-84
2022/12/13 06:31:58;;;;;;;0.90;0.90;;;;;;;0.26;100.00;98228.63;4910296;29;20059;-84
2022/12/13 06:34:34;;;;;;;0.80;0.80;;;;;;;0.23;100.00;98231.66;4918723;29;20048;-85
2022/12/13 06:37:03;;;;;;;0.82;0.82;;;;;;;0.29;100.00;98244.13;4924825;29;20146;-83
2022/12/13 06:39:31;;;;;;;0.90;0.90;;;;;;;0.25;100.00;98244.72;4915712;29;20055;-83
2022/12/13 06:42:01;;;;;;;0.80;0.80;;;;;;;0.29;100.00;98252.09;4920474;29;20047;-83
2022/12/13 06:44:28;;;;;;;0.98;0.98;;;;;;;0.33;100.00;98256.00;4912354;29;20079;-83
2022/12/13 06:46:55;;;;;;;0.90;0.90;;;;;;;0.35;100.00;98263.75;4923590;29;20052;-83
2022/12/13 06:49:40;;;;;;;0.90;0.90;;;;;;;0.35;100.00;98263.75;4936430;29;20086;-83
2022/12/13 06:52:11;;;;;;;0.90;0.90;;;;;;;0.33;100.00;98285.22;4928816;29;20055;-84
2022/12/13 06:54:38;;;;;;;0.88;0.88;;;;;;;0.34;100.00;98278.88;4909372;29;20130;-84
2022/12/13 06:57:06;;;;;;;0.80;0.80;;;;;;;0.32;100.00;98277.44;4925953;29;20055;-85
2022/12/13 06:59:33;;;;;;;0.80;0.80;;;;;;;0.31;100.00;98289.88;4934674;29;20063;-84
2022/12/13 07:02:00;;;;;;;0.80;0.80;;;;;;;0.35;100.00;98293.78;4929346;23;20123;-87
2022/12/13 07:04:32;;;;;;;0.80;0.80;;;;;;;0.35;100.00;98295.63;4934489;29;20056;-86
2022/12/13 07:06:59;;;;;;;0.88;0.88;;;;;;;0.34;100.00;98294.81;4903409;29;20142;-86
2022/12/13 07:09:29;;;;;;;0.90;0.90;;;;;;;0.34;100.00;98297.47;4935114;29;20052;-86
2022/12/13 07:11:57;;;;;;;0.88;0.88;;;;;;;0.37;100.00;98305.03;4902087;29;20080;-85
2022/12/13 07:14:24;;;;;;;0.90;0.90;;;;;;;0.35;100.00;98293.78;4918254;29;20578;-84
2022/12/13 07:16:51;;;;;;;0.90;0.90;;;;;;;0.40;100.00;98301.97;4934238;29;20162;-85
2022/12/13 07:19:29;;;;;;;0.90;0.90;;;;;;;0.33;100.00;98295.84;4901032;29;20063;-85
2022/12/13 07:22:11;;;;;;;0.90;0.90;;;;;;;0.39;100.00;98316.28;4932281;29;20106;-86
2022/12/13 07:24:38;;;;;;;0.90;0.90;;;;;;;0.42;100.00;98310.56;4935464;29;20063;-84
2022/12/13 07:27:05;;;;;;;0.90;0.90;;;;;;;0.44;100.00;98315.69;4918559;29;20048;-83
2022/12/13 07:29:33;;;;;;;0.80;0.80;;;;;;;0.45;100.00;98312.00;4935413;29;20099;-84
2022/12/13 07:32:00;;;;;;;0.90;0.90;;;;;;;0.42;100.00;98315.88;4934452;29;20515;-85
2022/12/13 07:34:41;;;;;;;0.90;0.90;;;;;;;0.38;100.00;98304.03;4935711;29;20146;-85
2022/12/13 07:37:08;;;;;;;0.90;0.90;;;;;;;0.38;100.00;98314.63;4918278;29;20526;-84
2022/12/13 07:39:55;;;;;;;0.90;0.90;;;;;;;0.37;100.00;98320.94;4918212;29;20052;-85
2022/12/13 07:42:30;;;;;;;0.98;0.98;;;;;;;0.33;100.00;98329.50;4929336;29;20075;-84
2022/12/13 07:45:06;;;;;;;0.98;0.98;;;;;;;0.33;100.00;98325.03;4920674;29;20104;-84
2022/12/13 07:47:36;;;;;;;0.90;0.90;;;;;;;0.32;100.00;98328.69;4905970;29;20768;-84
2022/12/13 07:50:05;;;;;;;0.90;0.90;;;;;;;0.32;100.00;98323.38;4904104;29;20429;-82
2022/12/13 07:52:50;;;;;;;1.00;1.00;;;;;;;0.30;100.00;98317.44;4916041;29;20468;-82
2022/12/13 07:55:17;;;;;;;0.90;0.90;;;;;;;0.31;100.00;98311.13;4898008;29;20574;-83
2022/12/13 07:58:07;;;;;;;0.80;0.80;;;;;;;0.32;100.00;98331.34;4899296;29;20052;-83
2022/12/13 08:00:39;;;;;;;0.88;0.88;;;;;;;0.26;100.00;98318.03;4913899;29;20056;-83
2022/12/13 08:03:13;;;;;;;0.88;0.88;;;;;;;0.31;100.00;98329.72;4886987;29;20061;-83
2022/12/13 08:06:06;;;;;;;0.80;0.80;;;;;;;0.28;100.00;98322.13;4909001;29;20052;-83
2022/12/13 08:08:34;;;;;;;0.90;0.90;;;;;;;0.26;100.00;98336.63;4888031;29;20067;-87
2022/12/13 08:11:02;;;;;;;0.80;0.80;;;;;;;0.26;100.00;98331.31;4900655;29;20058;-82
2022/12/13 08:13:29;;;;;;;0.82;0.82;;;;;;;0.30;100.00;98337.84;4915223;29;20147;-83
2022/12/13 08:15:59;;;;;;;0.88;0.88;;;;;;;0.31;100.00;98345.63;4880757;29;20068;-84
2022/12/13 08:18:27;;;;;;;0.90;0.90;;;;;;;0.28;100.00;98340.72;4882156;29;20393;-82
2022/12/13 08:20:59;;;;;;;1.00;1.00;;;;;;;0.29;100.00;98357.47;4926748;29;20075;-82
2022/12/13 08:23:26;;;;;;;0.90;0.90;;;;;;;0.31;100.00;98356.25;4925801;29;20062;-82
2022/12/13 08:25:54;;;;;;;0.68;0.68;;;;;;;0.31;100.00;98358.91;4902828;29;20070;-83
2022/12/13 08:28:22;;;;;;;0.80;0.80;;;;;;;0.29;100.00;98360.13;4893243;29;20052;-82
2022/12/13 08:30:49;;;;;;;0.90;0.90;;;;;;;0.29;100.00;98365.41;4914056;29;20455;-82
2022/12/13 08:33:17;;;;;;;0.80;0.80;;;;;;;0.18;100.00;98350.88;4916503;29;20056;-82
2022/12/13 08:35:47;;;;;;;0.80;0.80;;;;;;;0.15;100.00;98380.41;4922448;29;20052;-85
2022/12/13 08:38:15;;;;;;;0.88;0.88;;;;;;;0.01;100.00;98379.50;4915532;29;20115;-83
2022/12/13 08:40:49;;;;;;;0.80;0.80;;;;;;;-0.06;100.00;98384.75;4897509;29;20135;-82
2022/12/13 08:43:17;;;;;;;1.00;1.00;;;;;;;-0.07;100.00;98379.66;4895544;29;20152;-82
2022/12/13 08:45:50;;;;;;;0.80;0.80;;;;;;;-0.15;100.00;98371.81;4895515;29;20056;-84
2022/12/13 08:48:27;;;;;;;0.95;0.95;;;;;;;-0.22;100.00;98388.50;4901448;29;20051;-83
2022/12/13 08:50:59;;;;;;;0.80;0.80;;;;;;;-0.31;100.00;98389.63;4922003;29;20070;-83
2022/12/13 08:53:26;;;;;;;0.90;0.90;;;;;;;-0.37;100.00;98389.56;4922029;29;20056;-83
2022/12/13 08:56:09;;;;;;;0.90;0.90;;;;;;;-0.37;100.00;98394.88;4922133;29;20448;-83
2022/12/13 08:58:38;;;;;;;0.80;0.80;;;;;;;-0.38;100.00;98399.38;4912764;29;20086;-86
2022/12/13 09:01:06;;;;;;;0.77;0.77;;;;;;;-0.38;100.00;98407.31;4913394;29;20056;-84
2022/12/13 09:03:34;;;;;;;0.90;0.90;;;;;;;-0.39;100.00;98410.16;4915653;29;20154;-82
2022/12/13 09:06:10;;;;;;;0.90;0.90;;;;;;;-0.40;100.00;98413.81;4905105;29;20098;-84
2022/12/13 09:08:37;;;;;;;0.80;0.80;;;;;;;-0.41;100.00;98405.03;4886185;29;20171;-86
2022/12/13 09:11:05;;;;;;;0.90;0.90;;;;;;;-0.37;100.00;98410.78;4915269;29;20056;-84
2022/12/13 09:13:50;;;;;;;0.95;0.95;;;;;;;-0.41;100.00;98414.81;4904891;29;20128;-84
2022/12/13 09:16:22;;;;;;;0.98;0.98;;;;;;;-0.45;100.00;98409.91;4900592;29;20056;-85
2022/12/13 09:18:51;;;;;;;0.77;0.77;;;;;;;-0.44;100.00;98408.06;4914736;29;20058;-85
2022/12/13 09:21:22;;;;;;;0.90;0.90;;;;;;;-0.45;100.00;98412.53;4914600;29;20511;-85
2022/12/13 09:23:58;;;;;;;0.80;0.80;;;;;;;-0.40;100.00;98427.06;4915010;29;20048;-84
2022/12/13 09:26:28;;;;;;;0.90;0.90;;;;;;;-0.35;100.00;98420.19;4914552;29;20086;-84
2022/12/13 09:29:04;;;;;;;0.95;0.95;;;;;;;-0.44;100.00;98416.81;4914751;29;20511;-85
2022/12/13 09:31:39;;;;;;;0.90;0.90;;;;;;;-0.41;100.00;98428.06;4914532;29;20059;-84
2022/12/13 09:34:07;;;;;;;0.90;0.90;;;;;;;-0.38;100.00;98422.38;4914307;29;20196;-85
2022/12/13 09:36:34;;;;;;;0.95;0.95;;;;;;;-0.32;100.00;98419.00;4915708;29;20071;-84
2022/12/13 09:39:02;;;;;;;0.88;0.88;;;;;;;-0.27;100.00;98424.56;4916883;29;20072;-86
2022/12/13 09:41:39;;;;;;;0.93;0.93;;;;;;;-0.22;100.00;98427.47;4914226;29;20136;-83
2022/12/13 09:44:22;;;;;;;0.90;0.90;;;;;;;-0.29;100.00;98431.88;4914907;29;20076;-85
2022/12/13 09:47:14;;;;;;;0.90;0.90;;;;;;;-0.37;100.00;98438.13;4900315;29;20483;-85
2022/12/13 09:49:48;;;;;;;0.90;0.90;;;;;;;-0.49;100.00;98424.53;4897679;29;20052;-84
2022/12/13 09:52:21;;;;;;;1.00;1.00;;;;;;;-0.63;100.00;98420.09;4897965;29;20058;-84
2022/12/13 09:54:54;;;;;;;0.80;0.80;;;;;;;-0.71;100.00;98434.28;4897218;29;20048;-86
2022/12/13 09:57:27;;;;;;;0.93;0.93;;;;;;;-0.71;100.00;98430.78;4850674;29;20044;-84
2022/12/13 10:00:05;;;;;;;0.90;0.90;;;;;;;-0.90;100.00;98433.03;4898482;29;20048;-84
2022/12/13 10:02:45;;;;;;;0.95;0.95;;;;;;;-0.91;100.00;98435.88;4914393;29;20068;-84
2022/12/13 10:05:20;;;;;;;0.90;0.90;;;;;;;-0.91;100.00;98441.19;4897802;29;20647;-84
2022/12/13 10:08:16;;;;;;;0.90;0.90;;;;;;;-0.96;100.00;98438.22;4900662;29;20056;-85
2022/12/13 10:10:44;;;;;;;0.93;0.93;;;;;;;-1.03;100.00;98443.47;4882311;29;20147;-84
2022/12/13 10:13:40;;;;;;;1.00;1.00;;;;;;;-1.01;100.00;98448.56;4902633;29;20044;-83
2022/12/13 10:16:35;;;;;;;0.90;0.90;;;;;;;-1.00;100.00;98452.88;4913730;29;20071;-91
2022/12/13 10:19:14;;;;;;;0.80;0.80;;;;;;;-0.97;100.00;98457.78;4922690;29;20052;-84
2022/12/13 10:21:55;;;;;;;0.80;0.80;;;;;;;-0.93;100.00;98461.72;4927749;29;20063;-84
2022/12/13 10:24:46;;;;;;;1.00;1.00;;;;;;;-0.91;100.00;98457.06;4918694;29;20052;-87
2022/12/13 10:27:26;;;;;;;0.98;0.98;;;;;;;-1.01;100.00;98456.50;4918116;29;20100;-87
2022/12/13 10:29:57;;;;;;;0.90;0.90;;;;;;;-1.00;100.00;98466.94;4572540;29;10000471;-85
2022/12/13 10:32:25;;;;;;;0.90;0.90;;;;;;;-1.00;100.00;98461.63;4905032;29;20308;-84
2022/12/13 10:34:56;;;;;;;0.90;0.90;;;;;;;-0.93;100.00;98467.84;4876984;29;20052;-83
2022/12/13 10:37:33;;;;;;;0.95;0.95;;;;;;;-0.87;100.00;98477.69;4921690;29;20120;-84
2022/12/13 10:40:02;;;;;;;0.90;0.90;;;;;;;-0.90;100.00;98470.13;4899360;29;20055;-84
2022/12/13 10:42:29;;;;;;;0.88;0.88;;;;;;;-0.88;100.00;98473.41;4890328;29;20048;-83
2022/12/13 10:45:13;;;;;;;1.00;1.00;;;;;;;-0.90;100.00;98478.06;4915235;29;20075;-85
2022/12/13 10:47:42;;;;;;;0.90;0.90;;;;;;;-0.94;100.00;98479.47;4914549;29;20151;-85
2022/12/13 10:50:27;;;;;;;1.00;1.00;;;;;;;-0.93;100.00;98481.09;4900846;29;20059;-85
2022/12/13 10:52:57;;;;;;;0.82;0.82;;;;;;;-0.91;100.00;98488.88;4912861;29;20514;-83
2022/12/13 10:55:36;;;;;;;0.90;0.90;;;;;;;-0.88;100.00;98477.91;4887885;29;20087;-83
2022/12/13 10:58:08;;;;;;;0.98;0.98;;;;;;;-0.94;100.00;98473.31;4917278;29;20048;-83
2022/12/13 11:00:40;;;;;;;0.90;0.90;;;;;;;-0.99;100.00;98481.81;4928008;29;20783;-84
2022/12/13 11:03:09;;;;;;;0.90;0.90;;;;;;;-1.12;100.00;98482.44;4931361;29;20064;-84
2022/12/13 11:05:37;;;;;;;0.90;0.90;;;;;;;-1.17;100.00;98489.28;4911128;29;20051;-84
2022/12/13 11:08:25;;;;;;;1.00;1.00;;;;;;;-1.22;100.00;98492.47;4886474;29;20055;-84
2022/12/13 11:11:01;;;;;;;1.00;1.00;;;;;;;-1.29;100.00;98503.97;4921588;29;20052;-83
2022/12/13 11:13:42;;;;;;;0.90;0.90;;;;;;;-1.43;100.00;98508.25;4903133;29;20082;-85
2022/12/13 11:16:31;;;;;;;1.00;1.00;;;;;;;-1.51;100.00;98513.63;4912787;29;20606;-84
2022/12/13 11:19:05;;;;;;;0.80;0.80;;;;;;;-1.57;100.00;98515.16;4926620;29;20470;-84
2022/12/13 11:21:36;;;;;;;1.08;1.08;;;;;;;-1.61;100.00;98514.69;4883273;29;20091;-85
2022/12/13 11:24:19;;;;;;;0.90;0.90;;;;;;;-1.63;100.00;98515.88;4914422;29;20533;-85
2022/12/13 11:26:56;;;;;;;0.80;0.80;;;;;;;-1.69;100.00;98514.78;4909333;29;20517;-84
2022/12/13 11:29:54;;;;;;;0.90;0.90;;;;;;;-1.73;100.00;98523.25;4899890;29;20052;-84
2022/12/13 11:32:36;;;;;;;0.82;0.82;;;;;;;-1.78;100.00;98524.56;4914912;29;20052;-83
2022/12/13 11:35:31;;;;;;;0.90;0.90;;;;;;;-1.71;100.00;98534.47;4921964;29;20477;-84
2022/12/13 11:37:59;;;;;;;0.90;0.90;;;;;;;-1.67;100.00;98527.81;4916031;29;20052;-83
2022/12/13 11:40:29;;;;;;;0.80;0.80;;;;;;;-1.66;100.00;98521.53;4916042;29;20147;-86
2022/12/13 11:43:32;;;;;;;0.80;0.80;;;;;;;-1.71;100.00;98519.41;4900574;29;20083;-86
2022/12/13 11:46:04;;;;;;;0.82;0.82;;;;;;;-1.63;100.00;98543.16;4884325;29;20052;-87
2022/12/13 11:48:55;;;;;;;0.85;0.85;;;;;;;-1.60;100.00;98553.38;4910681;29;20095;-83
2022/12/13 11:51:30;;;;;;;1.00;1.00;;;;;;;-1.59;100.00;98547.09;4900125;29;20063;-84
2022/12/13 11:54:28;;;;;;;1.00;1.00;;;;;;;-1.54;100.00;98554.53;4871230;29;20142;-86
2022/12/13 11:57:30;;;;;;;0.93;0.93;;;;;;;-1.53;100.00;98564.09;4902796;29;20511;-87
2022/12/13 12:00:16;;;;;;;0.93;0.93;;;;;;;-1.51;100.00;98572.69;4916717;29;20048;-85
2022/12/13 12:03:33;;;;;;;0.82;0.82;;;;;;;-1.55;100.00;98571.38;4854645;29;20063;-85